Time;durP1;ratioP1;P1;durP2;ratioP2;P2;SDS_P1;SDS_P2;PMS_P1;PMS_P2;Temp;Humidity;BMP_temperature;BMP_pressure;BME280_temperature;BME280_humidity;BME280_pressure;Samples;Min_cycle;Max_cycle;Signal;HPM_P1;HPM_P2
2021/06/14 00:02:05;;;;;;;3.15;1.60;;;;;;;14.50;100.00;100166.31;1723825;82;21019;-89
2021/06/14 00:04:33;;;;;;;3.37;1.70;;;;;;;14.47;100.00;100168.70;1720987;82;20909;-88
2021/06/14 00:06:59;;;;;;;2.22;1.27;;;;;;;14.46;100.00;100171.89;1733968;82;21102;-90
2021/06/14 00:09:26;;;;;;;4.17;1.60;;;;;;;14.43;100.00;100171.20;1720388;82;21120;-90
2021/06/14 00:11:58;;;;;;;5.45;1.60;;;;;;;14.42;100.00;100173.52;1717798;79;21083;-89
2021/06/14 00:14:24;;;;;;;3.87;1.42;;;;;;;14.40;100.00;100170.92;1728048;81;21056;-87
2021/06/14 00:16:51;;;;;;;2.90;1.12;;;;;;;14.37;100.00;100167.07;1726962;82;21897;-87
2021/06/14 00:19:18;;;;;;;1.98;1.47;;;;;;;14.35;100.00;100166.77;1726434;81;21535;-88
2021/06/14 00:21:48;;;;;;;5.55;1.70;;;;;;;14.29;100.00;100153.16;1717595;82;21044;-88
2021/06/14 00:24:15;;;;;;;4.15;1.87;;;;;;;14.25;100.00;100155.16;1713720;82;21079;-88
2021/06/14 00:26:43;;;;;;;3.25;1.70;;;;;;;14.20;100.00;100147.84;1709165;83;21073;-87
2021/06/14 00:29:09;;;;;;;2.47;1.60;;;;;;;14.15;100.00;100155.34;1715997;82;21078;-88
2021/06/14 00:31:38;;;;;;;4.33;1.25;;;;;;;14.12;100.00;100152.83;1712792;82;21612;-89
2021/06/14 00:34:04;;;;;;;1.77;1.40;;;;;;;14.08;100.00;100155.33;1716284;82;21624;-88
2021/06/14 00:36:32;;;;;;;4.33;1.40;;;;;;;14.04;100.00;100153.28;1709264;83;21060;-87
2021/06/14 00:38:59;;;;;;;4.03;1.20;;;;;;;13.99;100.00;100146.80;1708981;82;21490;-87
2021/06/14 00:41:25;;;;;;;5.47;1.98;;;;;;;13.98;100.00;100142.88;1721962;82;21178;-87
2021/06/14 00:43:53;;;;;;;1.65;1.50;;;;;;;13.93;100.00;100149.88;1710428;83;21213;-90
2021/06/14 00:46:22;;;;;;;1.62;1.30;;;;;;;13.92;100.00;100162.95;1710663;82;21064;-87
2021/06/14 00:48:49;;;;;;;4.08;1.50;;;;;;;13.92;100.00;100164.31;1713606;82;21214;-88
2021/06/14 00:51:19;;;;;;;1.95;1.40;;;;;;;13.91;100.00;100161.22;1718921;82;21541;-87
2021/06/14 00:53:55;;;;;;;1.70;1.20;;;;;;;13.92;100.00;100157.57;1721408;82;21360;-87
2021/06/14 00:56:18;;;;;;;3.37;1.82;;;;;;;13.92;100.00;100149.48;1717788;82;21523;-87
2021/06/14 00:58:47;;;;;;;3.08;2.33;;;;;;;13.92;100.00;100146.79;1715339;82;20992;-89
2021/06/14 01:01:16;;;;;;;6.37;2.10;;;;;;;13.92;100.00;100149.95;1719740;82;21357;-87
2021/06/14 01:03:44;;;;;;;8.18;2.05;;;;;;;13.93;100.00;100156.61;1718798;82;21019;-87
2021/06/14 01:06:12;;;;;;;3.85;1.95;;;;;;;13.94;100.00;100155.65;1723617;82;21202;-89
2021/06/14 01:08:43;;;;;;;3.37;2.20;;;;;;;13.94;100.00;100155.65;1724385;82;21098;-87
2021/06/14 01:11:19;;;;;;;2.08;1.52;;;;;;;13.93;100.00;100143.62;1707511;82;21233;-88
2021/06/14 01:14:35;;;;;;;4.67;2.10;;;;;;;13.90;100.00;100144.17;1719553;82;21072;-88
2021/06/14 01:17:12;;;;;;;3.42;1.75;;;;;;;13.89;100.00;100144.28;1715222;81;21593;-88
2021/06/14 01:20:37;;;;;;;3.20;1.90;;;;;;;13.91;100.00;100155.83;1724751;82;21099;-89
2021/06/14 01:23:28;;;;;;;2.30;1.85;;;;;;;13.90;100.00;100148.71;1688234;83;21161;-89
2021/06/14 01:26:02;;;;;;;3.52;2.15;;;;;;;13.90;100.00;100156.30;1711125;82;21137;-90
2021/06/14 01:28:31;;;;;;;6.43;2.30;;;;;;;13.92;100.00;100150.83;1718677;82;21044;-88
2021/06/14 01:30:58;;;;;;;5.03;2.60;;;;;;;13.95;100.00;100151.14;1722711;82;21202;-88
2021/06/14 01:33:27;;;;;;;5.30;2.20;;;;;;;13.96;100.00;100152.87;1727074;82;21090;-89
2021/06/14 01:36:00;;;;;;;3.12;2.02;;;;;;;13.96;100.00;100150.19;1733026;82;21110;-90
2021/06/14 01:38:29;;;;;;;5.05;1.90;;;;;;;13.95;100.00;100146.61;1688388;83;21104;-90
2021/06/14 01:41:06;;;;;;;3.80;2.08;;;;;;;13.97;100.00;100140.64;1724096;82;21170;-90
2021/06/14 01:43:35;;;;;;;3.77;2.45;;;;;;;13.96;100.00;100142.09;1696115;82;20988;-88
2021/06/14 01:46:06;;;;;;;4.25;2.08;;;;;;;13.95;100.00;100145.75;1699622;80;21103;-89
2021/06/14 01:48:35;;;;;;;3.33;2.27;;;;;;;13.93;100.00;100146.33;1718438;82;21068;-90
2021/06/14 01:51:02;;;;;;;2.95;1.70;;;;;;;13.91;100.00;100145.05;1688945;83;21573;-89
2021/06/14 01:53:30;;;;;;;3.45;2.00;;;;;;;13.87;100.00;100149.75;1717828;82;21032;-89
2021/06/14 01:55:57;;;;;;;3.72;2.08;;;;;;;13.86;100.00;100143.97;1709523;83;21812;-89
2021/06/14 01:58:24;;;;;;;4.70;2.33;;;;;;;13.87;100.00;100152.94;1723043;83;21611;-91
2021/06/14 02:00:55;;;;;;;3.85;2.10;;;;;;;13.87;100.00;100146.20;1727971;82;21426;-89
2021/06/14 02:03:33;;;;;;;5.22;2.30;;;;;;;13.87;100.00;100152.94;1682519;83;21083;-89
2021/06/14 02:06:01;;;;;;;4.08;1.87;;;;;;;13.87;100.00;100140.81;1731194;82;20999;-90
2021/06/14 02:08:28;;;;;;;3.37;2.00;;;;;;;13.87;100.00;100147.05;1692762;82;21007;-89
2021/06/14 02:10:56;;;;;;;2.77;2.30;;;;;;;13.88;100.00;100147.94;1726579;82;21930;-90
2021/06/14 02:13:23;;;;;;;3.98;2.70;;;;;;;13.88;100.00;100135.81;1725492;82;21163;-90
2021/06/14 02:15:51;;;;;;;3.85;2.60;;;;;;;13.90;100.00;100136.58;1730247;82;20984;-89
2021/06/14 02:18:23;;;;;;;5.65;2.70;;;;;;;13.92;100.00;100129.73;1717632;82;21785;-89
2021/06/14 02:20:50;;;;;;;5.05;2.83;;;;;;;13.94;100.00;100128.70;1725012;82;21095;-89
2021/06/14 02:23:17;;;;;;;4.08;2.85;;;;;;;13.96;100.00;100128.63;1721042;82;21060;-89
2021/06/14 02:25:44;;;;;;;7.45;3.30;;;;;;;13.98;100.00;100124.86;1726437;82;21500;-90
2021/06/14 02:28:11;;;;;;;7.00;3.20;;;;;;;13.98;100.00;100119.47;1720841;82;21014;-89
2021/06/14 02:30:38;;;;;;;9.78;3.33;;;;;;;14.00;100.00;100128.33;1721709;82;21573;-89
2021/06/14 02:33:06;;;;;;;8.40;3.22;;;;;;;14.01;100.00;100131.41;1692977;83;21360;-89
2021/06/14 02:35:37;;;;;;;4.35;2.92;;;;;;;14.00;100.00;100128.33;1704487;81;21142;-89
2021/06/14 02:38:06;;;;;;;8.18;2.92;;;;;;;14.01;100.00;100131.41;1717177;81;21152;-89
2021/06/14 02:40:33;;;;;;;6.62;2.98;;;;;;;14.01;100.00;100134.11;1721927;82;21113;-88
2021/06/14 02:43:07;;;;;;;5.17;2.50;;;;;;;14.02;100.00;100144.42;1722173;80;21143;-89
2021/06/14 02:45:35;;;;;;;8.15;3.05;;;;;;;14.02;100.00;100128.25;1722303;82;21343;-89
2021/06/14 02:48:05;;;;;;;5.35;2.85;;;;;;;14.04;100.00;100129.91;1724355;80;20909;-88
2021/06/14 02:50:36;;;;;;;5.17;3.30;;;;;;;14.07;100.00;100125.29;1696077;82;21119;-89
2021/06/14 02:53:09;;;;;;;4.50;2.60;;;;;;;14.08;100.00;100127.02;1717628;82;20975;-88
2021/06/14 02:55:45;;;;;;;3.85;2.90;;;;;;;14.08;100.00;100139.16;1725166;82;21799;-89
2021/06/14 02:58:12;;;;;;;6.62;2.90;;;;;;;14.10;100.00;100135.89;1729152;82;21036;-89
2021/06/14 03:00:38;;;;;;;3.77;2.47;;;;;;;14.12;100.00;100135.31;1727253;82;20976;-89
2021/06/14 03:03:06;;;;;;;7.15;3.42;;;;;;;14.13;100.00;100141.09;1715045;82;21473;-90
2021/06/14 03:05:33;;;;;;;5.67;3.10;;;;;;;14.14;100.00;100140.12;1713443;82;21063;-88
2021/06/14 03:08:00;;;;;;;8.83;2.50;;;;;;;14.15;100.00;100139.17;1709985;82;21138;-89
2021/06/14 03:10:30;;;;;;;5.22;2.95;;;;;;;14.18;100.00;100149.77;1712779;82;21039;-90
2021/06/14 03:12:57;;;;;;;5.65;2.62;;;;;;;14.18;100.00;100140.33;1672975;83;21167;-89
2021/06/14 03:15:26;;;;;;;8.10;3.10;;;;;;;14.18;100.00;100149.77;1715037;82;21081;-88
2021/06/14 03:17:54;;;;;;;6.95;3.47;;;;;;;14.20;100.00;100152.37;1712182;83;21245;-90
2021/06/14 03:20:22;;;;;;;9.28;3.30;;;;;;;14.21;100.00;100153.62;1710446;83;21696;-91
2021/06/14 03:22:49;;;;;;;4.58;3.10;;;;;;;14.23;100.00;100153.05;1710175;83;21028;-90
2021/06/14 03:25:16;;;;;;;7.10;3.17;;;;;;;14.26;100.00;100144.80;1710850;83;21151;-91
2021/06/14 03:27:44;;;;;;;5.42;3.20;;;;;;;14.29;100.00;100147.30;1710465;83;21229;-92
2021/06/14 03:30:11;;;;;;;4.97;3.30;;;;;;;14.31;100.00;100157.52;1710263;83;21100;-90
2021/06/14 03:32:43;;;;;;;8.23;3.35;;;;;;;14.35;100.00;100158.67;1724369;82;21039;-90
2021/06/14 03:35:12;;;;;;;6.40;2.98;;;;;;;14.37;100.00;100163.02;1736851;81;21098;-92
2021/06/14 03:37:39;;;;;;;5.95;3.00;;;;;;;14.42;100.00;100165.42;1729900;82;20932;-90
2021/06/14 03:40:07;;;;;;;6.17;3.10;;;;;;;14.42;100.00;100174.39;1734971;81;21608;-92
2021/06/14 03:42:34;;;;;;;3.87;3.02;;;;;;;14.46;100.00;100171.01;1735288;81;20956;-88
2021/06/14 03:45:01;;;;;;;5.22;2.80;;;;;;;14.46;100.00;100178.64;1720543;81;21126;-90
2021/06/14 03:47:27;;;;;;;8.08;3.47;;;;;;;14.48;100.00;100179.91;1716748;83;21019;-92
2021/06/14 03:49:57;;;;;;;7.85;3.47;;;;;;;14.50;100.00;100183.37;1714306;83;21151;-90
2021/06/14 03:52:24;;;;;;;6.58;3.35;;;;;;;14.50;100.00;100192.81;1711536;83;21957;-91
2021/06/14 03:54:50;;;;;;;5.92;3.67;;;;;;;14.51;100.00;100180.18;1714430;83;21004;-90
2021/06/14 03:57:17;;;;;;;7.00;3.22;;;;;;;14.56;100.00;100180.30;1703553;81;20997;-88
2021/06/14 03:59:44;;;;;;;10.45;3.30;;;;;;;14.60;100.00;100179.14;1716582;81;20960;-88
2021/06/14 04:02:10;;;;;;;9.35;3.37;;;;;;;14.61;100.00;100175.48;1725237;82;21171;-88
2021/06/14 04:07:08;;;;;;;5.62;2.90;;;;;;;14.68;100.00;100181.84;1711056;83;21489;-89
2021/06/14 04:09:36;;;;;;;6.65;3.27;;;;;;;14.72;100.00;100171.30;1715505;82;21106;-90
2021/06/14 04:12:04;;;;;;;3.33;2.55;;;;;;;14.73;100.00;100179.28;1735748;82;21115;-89
2021/06/14 04:14:31;;;;;;;4.97;2.95;;;;;;;14.70;100.00;100177.21;1697831;82;21176;-89
2021/06/14 04:16:58;;;;;;;5.35;3.45;;;;;;;14.68;100.00;100187.23;1707323;82;22372;-89
2021/06/14 04:19:25;;;;;;;8.18;3.40;;;;;;;14.68;100.00;100187.23;1708485;82;21066;-89
2021/06/14 04:21:51;;;;;;;8.68;3.83;;;;;;;14.66;100.00;100190.52;1695746;84;20929;-89
2021/06/14 04:24:21;;;;;;;7.62;3.33;;;;;;;14.64;100.00;100191.09;1697177;82;21120;-89
2021/06/14 04:26:48;;;;;;;6.22;3.77;;;;;;;14.63;100.00;100197.45;1695911;82;20990;-89
2021/06/14 04:29:15;;;;;;;5.60;3.40;;;;;;;14.64;100.00;100196.02;1712783;82;21153;-89
2021/06/14 04:31:43;;;;;;;7.12;3.72;;;;;;;14.67;100.00;100199.87;1708987;82;20913;-89
2021/06/14 04:34:09;;;;;;;4.78;3.20;;;;;;;14.72;100.00;100198.28;1704458;82;21594;-89
2021/06/14 04:36:36;;;;;;;5.72;2.80;;;;;;;14.77;100.00;100197.52;1711988;82;21044;-89
2021/06/14 04:39:04;;;;;;;9.83;2.92;;;;;;;14.77;100.00;100197.52;1706208;82;21091;-93
2021/06/14 04:41:31;;;;;;;5.60;3.42;;;;;;;14.78;100.00;100201.95;1701080;84;21976;-91
2021/06/14 04:43:57;;;;;;;9.10;3.15;;;;;;;14.77;100.00;100190.77;1701190;83;21033;-91
2021/06/14 04:46:24;;;;;;;4.70;2.98;;;;;;;14.74;100.00;100192.31;1701910;84;20945;-90
2021/06/14 04:48:52;;;;;;;5.60;3.12;;;;;;;14.69;100.00;100187.16;1700733;82;21129;-90
2021/06/14 04:51:18;;;;;;;8.73;4.37;;;;;;;14.66;100.00;100191.86;1700666;83;21084;-90
2021/06/14 04:53:45;;;;;;;8.08;3.35;;;;;;;14.66;100.00;100195.91;1693682;84;21184;-90
2021/06/14 04:56:11;;;;;;;6.08;3.20;;;;;;;14.66;100.00;100191.86;1674239;84;21139;-90
2021/06/14 04:58:40;;;;;;;7.80;3.45;;;;;;;14.66;100.00;100191.86;1700672;83;21125;-90
2021/06/14 05:01:06;;;;;;;8.03;3.77;;;;;;;14.66;100.00;100195.44;1672921;85;21628;-90
2021/06/14 05:03:33;;;;;;;7.30;3.83;;;;;;;14.65;100.00;100187.42;1651962;85;21056;-90
2021/06/14 05:05:59;;;;;;;9.63;4.00;;;;;;;14.63;100.00;100192.05;1672883;82;21134;-91
2021/06/14 05:08:26;;;;;;;8.50;4.37;;;;;;;14.62;100.00;100200.64;1672487;84;21072;-91
2021/06/14 05:10:59;;;;;;;7.28;4.25;;;;;;;14.63;100.00;100203.73;1675347;84;21365;-91
2021/06/14 05:13:22;;;;;;;5.60;4.15;;;;;;;14.67;100.00;100207.08;1701118;82;21667;-91
2021/06/14 05:15:49;;;;;;;7.95;3.90;;;;;;;14.71;100.00;100215.44;1712625;82;21060;-90
2021/06/14 05:18:15;;;;;;;8.03;4.37;;;;;;;14.74;100.00;100228.73;1711371;83;21210;-91
2021/06/14 05:20:42;;;;;;;6.67;4.40;;;;;;;14.77;100.00;100224.50;1714047;83;21114;-91
2021/06/14 05:23:09;;;;;;;5.42;4.12;;;;;;;14.80;100.00;100225.66;1713957;83;21040;-89
2021/06/14 05:25:35;;;;;;;7.00;3.87;;;;;;;14.84;100.00;100224.50;1714601;83;21836;-90
2021/06/14 05:28:04;;;;;;;6.22;3.17;;;;;;;14.88;100.00;100224.69;1713372;82;20995;-89
2021/06/14 05:30:31;;;;;;;9.40;3.60;;;;;;;14.93;100.00;100223.56;1703770;83;21096;-88
2021/06/14 05:32:58;;;;;;;5.90;3.35;;;;;;;14.95;100.00;100222.98;1713265;83;21071;-88
2021/06/14 05:35:25;;;;;;;6.78;3.62;;;;;;;14.96;100.00;100232.31;1709693;82;21087;-89
2021/06/14 05:37:52;;;;;;;7.40;3.90;;;;;;;15.01;100.00;100232.89;1712783;82;20976;-89
2021/06/14 05:40:18;;;;;;;7.30;3.92;;;;;;;15.07;100.00;100224.05;1716105;82;20961;-88
2021/06/14 05:42:45;;;;;;;5.37;2.92;;;;;;;15.14;100.00;100226.28;1709357;82;21531;-89
2021/06/14 05:45:13;;;;;;;8.73;3.37;;;;;;;15.20;100.00;100231.75;1719313;82;21186;-88
2021/06/14 05:47:39;;;;;;;7.80;3.90;;;;;;;15.27;100.00;100243.05;1719382;82;21151;-88
2021/06/14 05:50:07;;;;;;;5.47;3.55;;;;;;;15.30;100.00;100239.67;1713072;82;21085;-89
2021/06/14 05:52:33;;;;;;;8.05;3.55;;;;;;;15.35;100.00;100235.31;1713920;82;21508;-89
2021/06/14 05:55:00;;;;;;;8.00;3.83;;;;;;;15.49;100.00;100248.44;1711375;82;21125;-89
2021/06/14 05:57:26;;;;;;;7.85;3.85;;;;;;;15.59;100.00;100246.89;1706108;83;21139;-89
2021/06/14 05:59:53;;;;;;;11.65;4.45;;;;;;;15.69;100.00;100249.84;1709236;80;21103;-90
2021/06/14 06:02:20;;;;;;;5.87;3.98;;;;;;;15.78;100.00;100249.27;1719288;82;21057;-89
2021/06/14 06:04:48;;;;;;;6.75;3.52;;;;;;;15.86;100.00;100252.83;1713437;82;21262;-89
2021/06/14 06:07:14;;;;;;;6.55;3.95;;;;;;;15.94;100.00;100259.97;1716136;82;21199;-89
2021/06/14 06:09:55;;;;;;;7.83;4.30;;;;;;;16.01;100.00;100257.23;1724340;80;20995;-88
2021/06/14 06:12:21;;;;;;;8.85;5.15;;;;;;;16.01;100.00;100254.53;1712345;82;21691;-87
2021/06/14 06:14:48;;;;;;;9.83;4.50;;;;;;;16.09;100.00;100258.59;1712237;81;21733;-88
2021/06/14 06:17:18;;;;;;;5.20;3.77;;;;;;;16.15;100.00;100255.47;1704643;82;20979;-88
2021/06/14 06:19:49;;;;;;;6.97;4.40;;;;;;;16.26;100.00;100260.16;1708853;82;21619;-88
2021/06/14 06:22:16;;;;;;;13.03;5.50;;;;;;;16.33;100.00;100253.36;1709617;81;21104;-86
2021/06/14 06:24:44;;;;;;;8.90;5.00;;;;;;;16.45;100.00;100266.55;1705721;82;21146;-87
2021/06/14 06:27:10;;;;;;;6.97;5.20;;;;;;;16.56;98.65;100259.05;1708553;81;20992;-88
2021/06/14 06:29:37;;;;;;;10.00;4.90;;;;;;;16.70;97.60;100250.02;1707821;82;21996;-87
2021/06/14 06:32:04;;;;;;;9.85;4.17;;;;;;;16.83;96.80;100259.50;1715583;82;21596;-87
2021/06/14 06:34:32;;;;;;;6.47;4.08;;;;;;;16.92;94.64;100259.36;1711057;82;20822;-92
2021/06/14 06:36:59;;;;;;;5.92;4.75;;;;;;;17.00;93.46;100267.83;1711585;82;21101;-87
2021/06/14 06:39:26;;;;;;;7.58;4.85;;;;;;;17.04;92.75;100269.34;1697874;82;21067;-87
2021/06/14 06:41:53;;;;;;;6.45;4.87;;;;;;;17.10;92.73;100268.91;1704807;82;21015;-88
2021/06/14 06:44:19;;;;;;;7.50;4.20;;;;;;;17.25;92.78;100276.46;1706077;82;21010;-87
2021/06/14 06:46:46;;;;;;;5.95;4.05;;;;;;;17.36;91.97;100268.92;1710402;82;21091;-88
2021/06/14 06:49:12;;;;;;;5.35;3.22;;;;;;;17.49;91.27;100266.67;1713731;82;21167;-88
2021/06/14 06:51:39;;;;;;;3.95;2.47;;;;;;;17.57;90.34;100273.75;1707086;82;21043;-88
2021/06/14 06:54:12;;;;;;;6.08;2.70;;;;;;;17.65;89.43;100282.69;1719969;82;21119;-88
2021/06/14 06:56:45;;;;;;;6.12;3.33;;;;;;;17.69;88.81;100285.58;1715203;82;21074;-87
2021/06/14 06:59:14;;;;;;;6.35;3.67;;;;;;;17.73;88.37;100287.94;1701175;82;20944;-88
2021/06/14 07:01:46;;;;;;;5.42;3.95;;;;;;;17.83;87.91;100294.06;1713247;82;20960;-87
2021/06/14 07:04:13;;;;;;;8.55;4.10;;;;;;;17.89;86.06;100292.25;1680585;83;36152;-88
2021/06/14 07:06:39;;;;;;;9.48;4.58;;;;;;;17.89;85.42;100294.95;1677882;83;20962;-88
2021/06/14 07:09:07;;;;;;;9.65;4.65;;;;;;;17.92;85.99;100297.95;1622805;85;22046;-87
2021/06/14 07:11:34;;;;;;;5.62;3.80;;;;;;;17.99;85.22;100294.64;1677645;83;20995;-88
2021/06/14 07:14:01;;;;;;;8.78;4.15;;;;;;;18.08;83.69;100303.98;1678041;83;21065;-91
2021/06/14 07:16:28;;;;;;;5.45;3.60;;;;;;;18.16;83.69;100293.92;1689660;83;21234;-93
2021/06/14 07:18:55;;;;;;;9.55;3.30;;;;;;;18.22;83.81;100297.53;1684245;81;21095;-92
2021/06/14 07:21:24;;;;;;;5.67;3.22;;;;;;;18.30;84.33;100303.27;1671572;83;21127;-91
2021/06/14 07:23:52;;;;;;;4.60;2.47;;;;;;;18.50;84.55;100291.41;1674857;83;21566;-91
2021/06/14 07:26:18;;;;;;;3.30;2.92;;;;;;;18.67;81.21;100301.45;1655018;85;21607;-91
2021/06/14 07:28:45;;;;;;;4.97;2.72;;;;;;;18.76;81.18;100301.61;1684455;83;20994;-93
2021/06/14 07:31:12;;;;;;;4.53;3.08;;;;;;;18.86;80.58;100311.27;1678618;83;21131;-92
2021/06/14 07:33:39;;;;;;;4.78;2.60;;;;;;;18.90;79.34;100301.92;1664900;83;21298;-92
2021/06/14 07:36:08;;;;;;;6.83;2.50;;;;;;;18.92;79.36;100310.45;1672438;83;21080;-92
2021/06/14 07:38:35;;;;;;;4.70;3.62;;;;;;;18.99;80.19;100310.37;1672490;83;20975;-87
2021/06/14 07:41:02;;;;;;;6.95;2.98;;;;;;;19.05;79.55;100311.23;1675668;83;21003;-90
2021/06/14 07:43:29;;;;;;;6.72;3.08;;;;;;;19.11;79.73;100313.47;1674648;83;20988;-88
2021/06/14 07:45:58;;;;;;;5.40;2.60;;;;;;;19.23;80.08;100319.82;1687783;83;21053;-89
2021/06/14 07:48:31;;;;;;;6.10;3.15;;;;;;;19.23;78.28;100313.03;1677781;84;20993;-91
2021/06/14 07:50:58;;;;;;;7.25;2.70;;;;;;;19.17;79.20;100322.52;1670369;83;21014;-89
2021/06/14 07:53:26;;;;;;;5.33;2.92;;;;;;;19.24;79.37;100326.11;1673076;83;21061;-89
2021/06/14 07:56:00;;;;;;;6.08;3.15;;;;;;;19.33;78.02;100329.44;1670531;83;21056;-90
2021/06/14 07:58:27;;;;;;;6.12;4.05;;;;;;;19.33;78.16;100328.09;1665689;83;21307;-89
2021/06/14 08:00:53;;;;;;;7.87;3.65;;;;;;;19.27;77.81;100338.09;1672128;83;21031;-88
2021/06/14 08:03:23;;;;;;;6.15;4.08;;;;;;;19.20;78.76;100331.41;1676655;83;20990;-89
2021/06/14 08:05:51;;;;;;;4.50;2.70;;;;;;;19.28;79.51;100337.09;1673758;83;20954;-88
2021/06/14 08:08:27;;;;;;;5.20;3.10;;;;;;;19.45;78.24;100355.67;1671642;83;21009;-89
2021/06/14 08:10:58;;;;;;;4.50;2.40;;;;;;;19.41;76.20;100339.72;1654145;84;21100;-86
2021/06/14 08:13:25;;;;;;;9.13;6.05;;;;;;;19.37;77.06;100343.67;1679267;83;20950;-89
2021/06/14 08:15:59;;;;;;;2.58;2.08;;;;;;;19.31;76.97;100349.97;1656043;83;21028;-93
2021/06/14 08:18:39;;;;;;;3.47;2.27;;;;;;;19.21;75.82;100354.88;1656529;83;21571;-89
2021/06/14 08:26:27;;;;;;;2.85;1.75;;;;;;;19.12;77.23;100354.63;1603681;87;21879;-87
2021/06/14 08:28:57;;;;;;;2.10;1.70;;;;;;;19.23;76.56;100352.91;1597538;87;21021;-90
2021/06/14 08:31:25;;;;;;;9.50;3.83;;;;;;;19.29;76.03;100342.43;1613284;84;21598;-93
2021/06/14 08:33:52;;;;;;;3.83;2.30;;;;;;;19.41;76.00;100339.23;1647792;84;21121;-93
2021/06/14 08:36:21;;;;;;;6.22;3.30;;;;;;;19.65;74.25;100343.70;1650301;85;21542;-85
2021/06/14 08:38:48;;;;;;;7.35;5.15;;;;;;;19.88;74.66;100353.23;1648992;85;21071;-87
2021/06/14 08:41:17;;;;;;;8.58;4.60;;;;;;;20.15;73.28;100365.60;1651717;85;21436;-87
2021/06/14 08:43:46;;;;;;;4.53;2.35;;;;;;;20.28;73.49;100360.89;1651567;85;20946;-83
2021/06/14 08:46:18;;;;;;;5.30;4.12;;;;;;;20.37;71.85;100386.98;1647273;85;21122;-84
2021/06/14 08:48:47;;;;;;;7.28;5.28;;;;;;;20.17;71.29;100375.86;1651511;84;21688;-84
2021/06/14 08:51:14;;;;;;;4.10;3.30;;;;;;;19.89;72.77;100375.36;1649897;84;21095;-83
2021/06/14 08:53:40;;;;;;;9.68;5.42;;;;;;;19.71;72.85;100382.64;1651053;85;21049;-83
2021/06/14 08:56:07;;;;;;;14.65;11.97;;;;;;;19.55;73.65;100380.75;1645811;85;21021;-86
2021/06/14 08:58:34;;;;;;;11.60;9.35;;;;;;;19.38;73.67;100389.77;1648124;85;21487;-84
2021/06/14 09:01:02;;;;;;;8.08;6.60;;;;;;;19.24;73.65;100387.25;1644367;85;21134;-83
2021/06/14 09:03:29;;;;;;;10.25;4.17;;;;;;;19.15;74.47;100385.63;1608000;86;20904;-84
2021/06/14 09:05:56;;;;;;;11.12;6.17;;;;;;;19.08;75.01;100387.06;1650177;85;21814;-82
2021/06/14 09:08:24;;;;;;;5.65;3.08;;;;;;;18.99;75.38;100387.27;1644578;85;21063;-83
2021/06/14 09:10:52;;;;;;;7.35;3.83;;;;;;;18.92;75.26;100383.78;1650733;85;21113;-83
2021/06/14 09:13:26;;;;;;;6.83;6.03;;;;;;;18.85;76.12;100378.80;1648692;85;39806;-85
2021/06/14 09:16:11;;;;;;;12.43;10.18;;;;;;;18.87;76.92;100390.91;1634877;85;21094;-86
2021/06/14 09:18:38;;;;;;;18.60;14.47;;;;;;;18.93;76.90;100378.72;1638467;85;21052;-84
2021/06/14 09:21:14;;;;;;;17.45;11.40;;;;;;;19.08;77.21;100393.86;1620305;86;21066;-84
2021/06/14 09:23:52;;;;;;;6.20;4.80;;;;;;;19.23;76.44;100390.95;1639773;84;21122;-82
2021/06/14 09:26:29;;;;;;;9.58;6.03;;;;;;;19.37;76.51;100379.00;1635400;85;21126;-85
2021/06/14 09:29:03;;;;;;;7.42;5.50;;;;;;;19.58;75.55;100368.30;1636282;85;21010;-84
2021/06/14 09:31:52;;;;;;;8.78;5.55;;;;;;;19.78;74.31;100384.86;1631784;85;21260;-84
2021/06/14 09:34:21;;;;;;;6.50;3.30;;;;;;;19.92;74.33;100381.09;1633634;85;21002;-84
2021/06/14 09:36:56;;;;;;;8.75;6.30;;;;;;;20.02;73.32;100392.47;1633265;85;21049;-84
2021/06/14 09:39:23;;;;;;;9.55;2.58;;;;;;;20.09;73.05;100409.66;1638281;84;21130;-85
2021/06/14 09:41:53;;;;;;;9.33;2.87;;;;;;;20.12;72.26;100398.52;1644034;84;20997;-90
2021/06/14 09:44:30;;;;;;;3.98;2.65;;;;;;;20.14;72.45;100411.02;1642085;83;20960;-92
2021/06/14 09:47:03;;;;;;;3.83;1.90;;;;;;;20.20;71.00;100406.91;1640536;84;20991;-91
2021/06/14 09:49:33;;;;;;;1.62;1.52;;;;;;;20.23;71.86;100401.24;1649299;83;20976;-88
2021/06/14 09:52:00;;;;;;;6.60;4.28;;;;;;;20.27;71.27;100397.27;1642066;82;21131;-88
2021/06/14 09:54:33;;;;;;;3.65;2.22;;;;;;;20.20;72.14;100401.47;1639670;85;21064;-90
2021/06/14 09:57:08;;;;;;;2.37;1.92;;;;;;;20.24;71.59;100398.89;1641356;85;20964;-90
2021/06/14 09:59:40;;;;;;;6.33;1.80;;;;;;;20.22;70.08;100399.48;1633092;83;21025;-88
2021/06/14 10:02:17;;;;;;;3.95;2.92;;;;;;;20.22;70.41;100400.84;1649856;84;29293;-87
2021/06/14 10:04:45;;;;;;;6.15;5.37;;;;;;;20.22;71.27;100402.72;1669129;82;21112;-87
2021/06/14 10:07:18;;;;;;;10.15;8.43;;;;;;;20.18;71.14;100404.81;1674442;84;21083;-88
2021/06/14 10:09:50;;;;;;;10.35;7.85;;;;;;;20.12;70.77;100409.40;1665379;82;21064;-91
2021/06/14 10:12:25;;;;;;;8.78;6.08;;;;;;;20.00;70.75;100401.22;1668653;82;20962;-86
2021/06/14 10:14:58;;;;;;;6.42;2.80;;;;;;;19.91;71.50;100401.98;1621970;85;21035;-88
2021/06/14 10:17:41;;;;;;;2.72;1.80;;;;;;;19.81;72.08;100395.52;1715755;82;21100;-85
2021/06/14 10:20:22;;;;;;;9.83;4.65;;;;;;;19.66;72.27;100401.19;1704967;82;21001;-86
2021/06/14 10:22:50;;;;;;;6.47;5.35;;;;;;;19.57;73.29;100420.95;1708050;82;20965;-88
2021/06/14 10:25:18;;;;;;;3.83;3.17;;;;;;;19.54;73.95;100414.38;1713817;82;21411;-87
2021/06/14 10:27:44;;;;;;;5.53;2.30;;;;;;;19.53;74.01;100409.44;1710096;78;21023;-88
2021/06/14 10:30:13;;;;;;;7.65;2.75;;;;;;;19.57;74.19;100409.56;1700149;80;21168;-89
2021/06/14 10:32:41;;;;;;;4.58;2.58;;;;;;;19.64;74.36;100409.95;1664304;82;20994;-88
2021/06/14 10:35:10;;;;;;;6.50;2.25;;;;;;;19.68;74.22;100407.36;1663903;84;21427;-87
2021/06/14 10:37:49;;;;;;;3.50;1.72;;;;;;;19.78;73.43;100410.70;1671361;83;20994;-87
2021/06/14 10:40:20;;;;;;;3.85;2.15;;;;;;;19.75;73.18;100407.23;1677207;83;21605;-88
2021/06/14 10:42:48;;;;;;;5.05;2.72;;;;;;;19.76;73.70;100413.05;1710980;80;21069;-89
2021/06/14 10:45:19;;;;;;;3.77;2.92;;;;;;;19.83;73.32;100415.30;1711338;80;21005;-89
2021/06/14 10:47:47;;;;;;;4.15;2.37;;;;;;;19.85;72.75;100418.77;1673864;82;21167;-88
2021/06/14 10:50:17;;;;;;;3.67;2.15;;;;;;;19.85;73.29;100399.21;1711821;80;20976;-90
2021/06/14 10:52:45;;;;;;;6.65;2.30;;;;;;;19.94;73.86;100404.45;1710825;80;20882;-89
2021/06/14 10:55:15;;;;;;;6.40;2.95;;;;;;;20.08;73.79;100406.56;1709362;79;21420;-87
2021/06/14 10:57:42;;;;;;;8.93;2.72;;;;;;;20.25;73.52;100410.14;1709066;80;20875;-90
2021/06/14 11:00:29;;;;;;;8.38;2.55;;;;;;;20.32;72.14;100416.81;1707780;82;21326;-89
2021/06/14 11:03:04;;;;;;;3.37;1.80;;;;;;;20.35;72.14;100417.55;1721634;82;21050;-89
2021/06/14 11:05:37;;;;;;;;;;;;;;;20.38;71.54;100410.48;1701416;82;21535;-89
2021/06/14 11:08:20;;;;;;;3.92;1.55;;;;;;;20.47;71.04;100407.02;1701843;82;21971;-85
2021/06/14 11:11:04;;;;;;;2.00;1.40;;;;;;;20.49;70.42;100409.13;1707760;82;21009;-90
2021/06/14 11:13:31;;;;;;;5.10;1.90;;;;;;;20.50;70.18;100403.16;1710824;82;20993;-89
2021/06/14 11:16:01;;;;;;;5.65;2.30;;;;;;;20.50;71.26;100396.35;1705632;82;21553;-86
2021/06/14 11:18:32;;;;;;;3.80;1.57;;;;;;;20.53;70.75;100396.09;1710809;82;21016;-83
2021/06/14 11:21:20;;;;;;;3.80;2.12;;;;;;;20.47;70.71;100394.77;1710952;82;21440;-85
2021/06/14 11:23:48;;;;;;;14.23;4.08;;;;;;;20.38;71.66;100395.03;1708729;81;20941;-84
2021/06/14 11:26:29;;;;;;;6.87;2.37;;;;;;;20.40;71.83;100409.86;1711585;82;21573;-84
2021/06/14 11:28:56;;;;;;;4.03;1.87;;;;;;;20.43;71.82;100401.44;1711349;82;21052;-84
2021/06/14 11:31:31;;;;;;;8.63;5.95;;;;;;;20.44;71.18;100397.72;1709204;82;21056;-84
2021/06/14 11:34:02;;;;;;;;;;;;;;;20.52;70.95;100407.98;1713895;82;21092;-85
2021/06/14 11:36:31;;;;;;;16.70;11.97;;;;;;;20.59;70.35;100404.62;1710243;82;20139;-85
2021/06/14 11:39:01;;;;;;;14.63;7.80;;;;;;;20.59;70.53;100396.45;1671100;83;21618;-85
2021/06/14 11:41:34;;;;;;;5.42;2.35;;;;;;;20.61;70.74;100417.61;1707455;81;21575;-85